Terminal Aerodrome Forecast
Issued by NWS

Home | Current Version | Previous Version | Text Only | Print | Product List | Glossary On
Versions: 1 2 3 4 5 6 7 8 9 10 11 12 13 14 15 16 17 18
875
FTUS46 KPDT 232007 AAB
TAFRDM
TAF AMD
KRDM 232007Z 2320/2418 VRB03KT P6SM OVC009
     FM232100 34006KT P6SM SCT012 BKN025
     FM240400 VRB04KT 3SM BR SCT010 BKN060
     FM241200 VRB03KT 5SM BR FEW010 SCT120=

USA.gov is the U.S. government's official web portal to all federal, state and local government web resources and services.